Japan Airlines Virtual Airport Information Service

Osaka International Airport

ICAO: RJOO Country: Japan
Latitude: 34.7855 Longitude: 135.438
Latest Arrival : JAL131 (RJTT-RJOO) Latest Departure : JAL2081 (RJOO-ROAH)


WX CaptureLIVE
Data provided by noaa.gov | Fetched at 13:42:09

METAR : RJOO 231100Z 25007KT 210V280 9999 FEW030 SCT180 BKN/// 18/13 Q1019 RMK 1CU030 3AC180 A3011

TAF : RJOO 231105Z 2312/2418 32005KT 9999 FEW015 SCT025 BECMG 2400/2403 22008KT BECMG 2409/2412 32005KT


Runway Data for RJOO
Data provided by openaviationdata.com

Runway ID Mag Var Hdg Length Elevation Surface ILS Freq ILS Id ILS Slope
14L -7 142° 5999 ft 39 ft Asphalt -- -- --
14R -7 142° 9845 ft 39 ft Asphalt -- -- --
32L -7 322° 9845 ft 39 ft Asphalt 110.1 ISK 3
32R -7 322° 5999 ft 39 ft Asphalt -- -- --

Osaka International Airport, Japan
Use only for reference purposes



Not for navigational purposes.